Goldfield, Nevada
Current Conditions -  °F | °C
As of 1:56 PM on Friday 19 Dec 2014 (Local Time) from KTPH Reporting Station
Broken Clouds Broken Clouds  
Wind Chill: 35°   Ceiling: 11000
Heat Index: 39°   Visibility: 10mi
Dew Point: 30°   Wind: 6mph
Humidity: 70%   Direction: 210°SSW
Pressure: 30.16"   Gusts: NA
Location:  37.71°N, 117.24°W
Report Text: KTPH 192156Z AUTO 21005KT 10SM BKN110 04/M01 A3016 RMK AO2 SLP223 T00391011
Loading
Personal Weather Stations






























Interactive Weather Map New forecast layout! Learn more

10-Day Weather Forecast

Advertisements
Track Severe Weather on mobile